METAR Data
IDs: Format: Raw Decoded Include TAF

Data at: 1950 UTC 18 Apr 2021

KSNA 181853Z 03017G23KT 10SM FEW250 30/M08 A3000 RMK AO2 PK WND 05026/1814 SLP158 T03001083